Time;durP1;ratioP1;P1;durP2;ratioP2;P2;SDS_P1;SDS_P2;PMS_P1;PMS_P2;Temp;Humidity;BMP_temperature;BMP_pressure;BME280_temperature;BME280_humidity;BME280_pressure;Samples;Min_cycle;Max_cycle;Signal;HPM_P1;HPM_P2
2020/12/08 00:01:17;;;;;;;49.38;24.58;;;3.20;99.90;;;;;;5063182;28;20051;-67
2020/12/08 00:03:42;;;;;;;48.15;23.13;;;3.20;99.90;;;;;;5065872;28;20033;-67
2020/12/08 00:06:08;;;;;;;47.13;24.02;;;3.20;99.90;;;;;;5064693;28;20487;-67
2020/12/08 00:08:33;;;;;;;50.60;25.17;;;3.20;99.90;;;;;;5065075;28;20492;-67
2020/12/08 00:10:59;;;;;;;47.00;24.13;;;3.20;99.90;;;;;;5064783;28;20062;-67
2020/12/08 00:13:24;;;;;;;50.63;24.77;;;3.20;99.90;;;;;;5064464;28;20498;-68
2020/12/08 00:15:50;;;;;;;51.78;24.50;;;3.20;99.90;;;;;;5068035;28;20491;-67
2020/12/08 00:18:15;;;;;;;47.28;21.85;;;3.20;99.90;;;;;;5066365;28;20063;-67
2020/12/08 00:20:41;;;;;;;48.50;23.13;;;3.20;99.90;;;;;;5063042;28;20036;-67
2020/12/08 00:23:07;;;;;;;46.47;23.45;;;3.20;99.90;;;;;;5068616;28;20021;-67
2020/12/08 00:25:32;;;;;;;42.13;21.10;;;3.20;99.90;;;;;;5060974;28;20039;-67
2020/12/08 00:27:58;;;;;;;40.72;21.23;;;3.20;99.90;;;;;;5067286;28;20065;-67
2020/12/08 00:30:23;;;;;;;45.72;21.75;;;3.20;99.90;;;;;;5055772;28;20376;-67
2020/12/08 00:32:49;;;;;;;44.30;23.05;;;3.20;99.90;;;;;;5069958;28;20066;-67
2020/12/08 00:35:19;;;;;;;50.63;22.20;;;3.20;99.90;;;;;;5071510;28;20020;-67
2020/12/08 00:37:45;;;;;;;46.70;22.90;;;3.20;99.90;;;;;;5063740;28;20036;-67
2020/12/08 00:40:11;;;;;;;48.67;23.70;;;3.20;99.90;;;;;;5070189;28;20082;-67
2020/12/08 00:42:39;;;;;;;45.85;22.95;;;3.20;99.90;;;;;;5061744;28;20025;-67
2020/12/08 00:45:06;;;;;;;51.10;25.13;;;3.20;99.90;;;;;;5067847;28;20048;-67
2020/12/08 00:47:32;;;;;;;47.88;24.20;;;3.30;99.90;;;;;;5067690;28;20431;-67
2020/12/08 00:49:58;;;;;;;46.15;23.38;;;3.20;99.90;;;;;;5064693;28;20024;-67
2020/12/08 00:52:23;;;;;;;47.25;23.85;;;3.30;99.90;;;;;;5067686;28;20086;-67
2020/12/08 00:54:49;;;;;;;45.88;25.00;;;3.30;99.90;;;;;;5063422;28;20021;-67
2020/12/08 00:57:22;;;;;;;48.30;24.98;;;3.30;99.90;;;;;;5072930;28;20029;-67
2020/12/08 00:59:48;;;;;;;45.13;23.80;;;3.30;99.90;;;;;;5061039;28;20075;-67
2020/12/08 01:02:16;;;;;;;48.80;25.13;;;3.30;99.90;;;;;;5068088;28;20052;-67
2020/12/08 01:04:41;;;;;;;46.10;24.70;;;3.20;99.90;;;;;;5066994;28;20033;-67
2020/12/08 01:07:07;;;;;;;50.55;23.63;;;3.20;99.90;;;;;;5068213;28;20044;-67
2020/12/08 01:09:32;;;;;;;44.03;22.80;;;3.20;99.90;;;;;;5062318;28;20024;-67
2020/12/08 01:11:58;;;;;;;46.25;23.67;;;3.10;99.90;;;;;;5063617;28;20779;-67
2020/12/08 01:14:23;;;;;;;43.88;22.63;;;3.10;99.90;;;;;;5066984;28;20461;-67
2020/12/08 01:16:49;;;;;;;48.28;22.73;;;3.10;99.90;;;;;;5068002;28;20147;-67
2020/12/08 01:19:14;;;;;;;45.95;23.10;;;3.10;99.90;;;;;;5059600;28;20500;-67
2020/12/08 01:21:40;;;;;;;47.78;23.85;;;3.10;99.90;;;;;;5072168;28;20055;-67
2020/12/08 01:24:05;;;;;;;49.10;24.67;;;3.00;99.90;;;;;;5072699;28;20066;-68
2020/12/08 01:26:31;;;;;;;52.33;26.33;;;3.00;99.90;;;;;;5067614;28;20110;-67
2020/12/08 01:28:56;;;;;;;51.30;25.90;;;3.00;99.90;;;;;;5059016;28;20060;-69
2020/12/08 01:31:32;;;;;;;54.92;26.42;;;2.90;99.90;;;;;;5063713;28;20073;-67
2020/12/08 01:33:58;;;;;;;49.72;24.83;;;2.90;99.90;;;;;;5072768;28;20103;-67
2020/12/08 01:36:23;;;;;;;47.63;25.02;;;2.90;99.90;;;;;;5064787;28;20043;-67
2020/12/08 01:38:49;;;;;;;50.55;25.88;;;2.90;99.90;;;;;;5060313;28;20042;-67
2020/12/08 01:41:15;;;;;;;48.92;25.55;;;2.90;99.90;;;;;;5068563;28;20036;-68
2020/12/08 01:43:51;;;;;;;56.15;27.58;;;2.90;99.90;;;;;;5063738;28;20135;-67
2020/12/08 01:46:18;;;;;;;56.05;28.83;;;2.90;99.90;;;;;;5065247;28;20032;-67
2020/12/08 01:48:45;;;;;;;55.15;26.83;;;2.90;99.90;;;;;;5067713;28;20070;-67
2020/12/08 01:51:12;;;;;;;52.95;27.08;;;3.00;99.90;;;;;;5064845;28;20124;-67
2020/12/08 01:53:37;;;;;;;57.90;28.33;;;3.00;99.90;;;;;;5067915;28;20438;-67
2020/12/08 01:56:03;;;;;;;47.42;25.23;;;3.00;99.90;;;;;;5064379;28;20111;-67
2020/12/08 01:58:29;;;;;;;48.90;26.05;;;3.00;99.90;;;;;;5059771;28;20033;-67
2020/12/08 02:00:54;;;;;;;47.42;25.70;;;3.00;99.90;;;;;;5059045;28;20421;-67
2020/12/08 02:03:20;;;;;;;50.03;26.65;;;3.00;99.90;;;;;;5058589;28;20025;-67
2020/12/08 02:05:46;;;;;;;58.80;27.88;;;3.00;99.90;;;;;;5065739;28;20036;-67
2020/12/08 02:08:11;;;;;;;57.28;28.90;;;3.00;99.90;;;;;;5066794;28;20452;-67
2020/12/08 02:10:37;;;;;;;54.17;27.67;;;3.00;99.90;;;;;;5067803;28;20024;-67
2020/12/08 02:13:10;;;;;;;55.58;30.15;;;3.00;99.90;;;;;;5068475;28;20484;-66
2020/12/08 02:15:36;;;;;;;58.42;27.67;;;2.90;99.90;;;;;;5063551;28;20477;-67
2020/12/08 02:18:02;;;;;;;55.70;27.75;;;2.90;99.90;;;;;;5065997;28;20055;-68
2020/12/08 02:20:28;;;;;;;56.50;27.92;;;2.80;99.90;;;;;;5065021;28;20135;-67
2020/12/08 02:22:57;;;;;;;61.35;29.00;;;2.80;99.90;;;;;;5066634;28;20032;-68
2020/12/08 02:25:23;;;;;;;53.85;28.50;;;2.80;99.90;;;;;;5059573;28;20044;-68
2020/12/08 02:27:49;;;;;;;57.13;30.23;;;2.80;99.90;;;;;;5056341;28;20032;-67
2020/12/08 02:30:14;;;;;;;56.15;28.92;;;2.70;99.90;;;;;;5057707;28;20090;-68
2020/12/08 02:32:40;;;;;;;62.58;29.95;;;2.70;99.90;;;;;;5063983;28;20028;-68
2020/12/08 02:35:06;;;;;;;61.78;29.67;;;2.70;99.90;;;;;;5057989;28;20412;-67
2020/12/08 02:37:34;;;;;;;63.92;30.27;;;2.70;99.90;;;;;;5062878;28;20068;-67
2020/12/08 02:39:59;;;;;;;59.85;31.10;;;2.60;99.90;;;;;;5062060;28;20040;-67
2020/12/08 02:42:25;;;;;;;59.60;28.25;;;2.60;99.90;;;;;;5064584;28;20029;-68
2020/12/08 02:44:50;;;;;;;67.93;31.27;;;2.60;99.90;;;;;;5062206;28;20053;-67
2020/12/08 02:47:16;;;;;;;57.38;28.75;;;2.50;99.90;;;;;;5065671;28;20031;-67
2020/12/08 02:49:42;;;;;;;56.38;28.42;;;2.40;99.90;;;;;;5060143;28;20032;-67
2020/12/08 02:52:08;;;;;;;58.03;27.73;;;2.40;99.90;;;;;;5065727;28;20033;-68
2020/12/08 02:54:33;;;;;;;61.95;29.80;;;2.40;99.90;;;;;;5063222;28;20107;-66
2020/12/08 02:57:05;;;;;;;64.95;31.42;;;2.30;99.90;;;;;;5066841;28;20032;-67
2020/12/08 02:59:34;;;;;;;59.83;30.58;;;2.30;99.90;;;;;;5066290;28;20036;-67
2020/12/08 03:02:00;;;;;;;59.22;29.48;;;2.20;99.90;;;;;;5061752;28;20116;-67
2020/12/08 03:04:25;;;;;;;64.88;30.77;;;2.20;99.90;;;;;;5067729;28;20109;-67
2020/12/08 03:06:51;;;;;;;57.35;28.10;;;2.20;99.90;;;;;;5060729;28;20060;-67
2020/12/08 03:09:17;;;;;;;60.70;28.80;;;2.10;99.90;;;;;;5058096;28;20431;-67
2020/12/08 03:11:42;;;;;;;57.97;28.45;;;2.10;99.90;;;;;;5060033;28;20466;-67
2020/12/08 03:14:08;;;;;;;63.95;31.23;;;2.10;99.90;;;;;;5067206;28;20039;-67
2020/12/08 03:16:34;;;;;;;64.40;30.30;;;2.00;99.90;;;;;;5059825;28;20119;-67
2020/12/08 03:19:00;;;;;;;68.45;31.95;;;2.00;99.90;;;;;;5060517;28;20021;-67
2020/12/08 03:21:26;;;;;;;58.63;29.35;;;1.90;99.90;;;;;;5060743;28;20489;-67
2020/12/08 03:23:52;;;;;;;54.75;26.73;;;1.90;99.90;;;;;;5062411;28;20116;-67
2020/12/08 03:26:21;;;;;;;59.45;29.48;;;1.80;99.90;;;;;;5057101;28;20546;-67
2020/12/08 03:28:48;;;;;;;62.95;29.23;;;1.80;99.90;;;;;;5070412;28;20042;-67
2020/12/08 03:31:13;;;;;;;64.28;29.95;;;1.80;99.90;;;;;;5063204;28;20077;-67
2020/12/08 03:33:39;;;;;;;60.72;30.08;;;1.70;99.90;;;;;;5061842;28;20036;-67
2020/12/08 03:36:09;;;;;;;65.07;30.00;;;1.70;99.90;;;;;;5058509;28;20025;-67
2020/12/08 03:38:34;;;;;;;63.30;29.50;;;1.70;99.90;;;;;;5054531;28;20116;-68
2020/12/08 03:41:00;;;;;;;61.60;29.30;;;1.60;99.90;;;;;;5058023;28;20064;-68
2020/12/08 03:43:25;;;;;;;64.40;29.20;;;1.60;99.90;;;;;;5063127;28;20048;-67
2020/12/08 03:45:51;;;;;;;66.47;30.77;;;1.60;99.90;;;;;;5063269;28;20053;-68
2020/12/08 03:48:16;;;;;;;66.75;30.13;;;1.60;99.90;;;;;;5063260;28;20633;-68
2020/12/08 03:50:44;;;;;;;69.95;31.88;;;1.70;99.90;;;;;;5058370;28;20079;-68
2020/12/08 03:53:09;;;;;;;62.17;29.92;;;1.70;99.90;;;;;;5057825;28;20119;-67
2020/12/08 03:55:35;;;;;;;63.35;28.77;;;1.80;99.90;;;;;;5058516;28;20123;-66
2020/12/08 03:58:00;;;;;;;63.40;28.95;;;1.90;99.90;;;;;;5057652;28;20055;-68
2020/12/08 04:00:26;;;;;;;68.68;30.60;;;2.00;99.90;;;;;;5056763;28;20224;-67
2020/12/08 04:02:51;;;;;;;67.53;30.38;;;2.10;99.90;;;;;;5056879;28;20441;-67
2020/12/08 04:05:17;;;;;;;56.58;28.02;;;2.20;99.90;;;;;;5057378;28;20095;-67
2020/12/08 04:07:42;;;;;;;55.63;28.15;;;2.20;99.90;;;;;;5060939;28;20027;-67
2020/12/08 04:10:08;;;;;;;52.85;25.35;;;2.30;99.90;;;;;;5067827;28;20028;-67
2020/12/08 04:12:33;;;;;;;54.33;27.25;;;2.30;99.90;;;;;;5054682;28;20603;-67
2020/12/08 04:14:59;;;;;;;53.35;26.23;;;2.40;99.90;;;;;;5064257;28;20016;-67
2020/12/08 04:17:24;;;;;;;46.50;24.55;;;2.40;99.90;;;;;;5065087;28;20033;-67
2020/12/08 04:19:50;;;;;;;42.78;22.15;;;2.50;99.90;;;;;;5061824;28;20036;-66
2020/12/08 04:22:15;;;;;;;49.90;23.30;;;2.50;99.90;;;;;;5062403;28;20512;-68
2020/12/08 04:24:41;;;;;;;42.53;22.30;;;2.60;99.90;;;;;;5060182;28;20053;-68
2020/12/08 04:27:06;;;;;;;40.63;21.30;;;2.60;99.90;;;;;;5062905;28;20027;-68
2020/12/08 04:29:32;;;;;;;41.78;22.45;;;2.60;99.90;;;;;;5059314;28;20016;-68
2020/12/08 04:31:57;;;;;;;44.03;21.42;;;2.60;99.90;;;;;;5070385;28;20106;-68
2020/12/08 04:34:23;;;;;;;37.97;20.23;;;2.60;99.90;;;;;;5061994;28;20028;-68
2020/12/08 04:36:49;;;;;;;36.38;18.98;;;2.60;99.90;;;;;;5067142;28;20036;-68
2020/12/08 04:39:14;;;;;;;34.13;19.17;;;2.60;99.90;;;;;;5061864;28;20032;-68
2020/12/08 04:41:40;;;;;;;34.45;18.85;;;2.60;99.90;;;;;;5064990;28;20035;-67
2020/12/08 04:44:05;;;;;;;32.28;18.38;;;2.60;99.90;;;;;;5067178;28;20025;-68
2020/12/08 04:46:31;;;;;;;37.20;18.02;;;2.50;99.90;;;;;;5056368;28;20047;-68
2020/12/08 04:48:57;;;;;;;29.17;16.42;;;2.20;99.90;;;;;;5067555;28;20013;-68
2020/12/08 04:51:23;;;;;;;34.28;16.90;;;2.40;99.90;;;;;;5065840;28;20035;-68
2020/12/08 04:53:52;;;;;;;26.52;16.00;;;2.30;99.90;;;;;;5069502;28;20052;-68
2020/12/08 04:56:17;;;;;;;26.98;15.65;;;2.20;99.90;;;;;;5064441;28;20483;-67
2020/12/08 04:58:44;;;;;;;35.78;15.80;;;2.20;99.90;;;;;;5065254;28;20044;-68
2020/12/08 05:01:10;;;;;;;30.48;16.13;;;2.20;99.90;;;;;;5058752;28;20031;-68
2020/12/08 05:03:37;;;;;;;29.60;16.33;;;2.20;99.90;;;;;;5069573;28;20028;-68
2020/12/08 05:06:04;;;;;;;29.35;16.35;;;2.10;99.90;;;;;;5064272;28;20020;-68
2020/12/08 05:08:30;;;;;;;26.27;15.85;;;2.10;99.90;;;;;;5064158;28;20402;-68
2020/12/08 05:11:07;;;;;;;28.38;16.70;;;2.00;99.90;;;;;;5066612;28;20035;-68
2020/12/08 05:13:32;;;;;;;29.23;14.90;;;2.00;99.90;;;;;;5064495;28;20497;-68
2020/12/08 05:16:02;;;;;;;27.13;15.77;;;2.00;99.90;;;;;;5062961;28;20079;-68
2020/12/08 05:18:31;;;;;;;28.48;15.65;;;1.90;99.90;;;;;;5066488;28;20434;-68
2020/12/08 05:21:10;;;;;;;30.02;15.07;;;1.90;99.90;;;;;;5061593;28;20045;-68
2020/12/08 05:23:44;;;;;;;26.05;15.23;;;1.90;99.90;;;;;;5057820;28;20683;-68
2020/12/08 05:26:15;;;;;;;27.25;15.55;;;1.80;99.90;;;;;;5059824;28;20033;-68
2020/12/08 05:28:42;;;;;;;27.38;15.18;;;1.70;99.90;;;;;;5065896;28;20032;-68
2020/12/08 05:31:09;;;;;;;25.02;14.10;;;1.70;99.90;;;;;;5067086;28;20032;-68
2020/12/08 05:33:37;;;;;;;27.55;15.20;;;1.70;99.90;;;;;;5064704;28;20485;-69
2020/12/08 05:36:02;;;;;;;35.38;15.27;;;1.60;99.90;;;;;;5058699;28;20029;-68
2020/12/08 05:38:34;;;;;;;25.52;14.40;;;1.60;99.90;;;;;;5059489;28;20090;-68
2020/12/08 05:41:03;;;;;;;25.08;14.07;;;1.60;99.90;;;;;;5063682;28;20037;-68
2020/12/08 05:43:40;;;;;;;25.63;14.60;;;1.50;99.90;;;;;;5064478;28;20036;-68
2020/12/08 05:46:07;;;;;;;28.35;15.85;;;1.50;99.90;;;;;;5063705;28;20052;-67
2020/12/08 05:48:34;;;;;;;36.13;16.38;;;1.50;99.90;;;;;;5062216;28;20321;-68
2020/12/08 05:51:01;;;;;;;22.85;14.48;;;1.50;99.90;;;;;;5064618;28;20032;-67
2020/12/08 05:53:26;;;;;;;30.25;15.77;;;1.40;99.90;;;;;;5064022;28;20123;-67
2020/12/08 05:56:05;;;;;;;26.63;14.15;;;1.40;99.90;;;;;;5062741;28;20108;-69
2020/12/08 05:58:31;;;;;;;26.00;15.88;;;1.30;99.90;;;;;;5067444;28;20120;-67
2020/12/08 06:01:04;;;;;;;28.02;15.35;;;1.30;99.90;;;;;;5066314;28;20119;-67
2020/12/08 06:03:30;;;;;;;26.63;14.23;;;1.30;99.90;;;;;;5058045;28;20035;-67
2020/12/08 06:06:06;;;;;;;26.48;14.02;;;1.30;99.90;;;;;;5063164;28;20559;-67
2020/12/08 06:08:44;;;;;;;23.52;13.68;;;1.30;99.90;;;;;;5058383;28;20119;-68
2020/12/08 06:11:10;;;;;;;25.90;14.10;;;1.30;99.90;;;;;;5068511;28;20425;-67
2020/12/08 06:13:39;;;;;;;21.98;14.38;;;1.20;99.90;;;;;;5065346;28;20094;-67
2020/12/08 06:16:19;;;;;;;26.23;13.95;;;1.10;99.90;;;;;;5063549;28;20021;-67
2020/12/08 06:18:46;;;;;;;26.73;15.45;;;1.10;99.90;;;;;;5080341;28;20441;-69
2020/12/08 06:21:28;;;;;;;26.00;14.77;;;1.10;99.90;;;;;;5078903;28;20447;-67
2020/12/08 06:23:59;;;;;;;25.30;14.10;;;1.10;99.90;;;;;;5081846;28;20031;-67
2020/12/08 06:26:27;;;;;;;25.00;14.65;;;1.10;99.90;;;;;;5087727;28;20033;-67
2020/12/08 06:28:53;;;;;;;24.42;14.32;;;1.10;99.90;;;;;;5070835;28;20744;-67
2020/12/08 06:31:19;;;;;;;24.45;14.43;;;1.10;99.90;;;;;;5078848;28;20452;-67
2020/12/08 06:33:47;;;;;;;23.17;13.48;;;1.00;99.90;;;;;;5078683;28;20029;-67
2020/12/08 06:36:13;;;;;;;23.05;14.18;;;1.00;99.90;;;;;;5076122;28;20032;-68
2020/12/08 06:38:39;;;;;;;24.40;13.90;;;1.00;99.90;;;;;;5085777;28;20106;-66
2020/12/08 06:41:04;;;;;;;24.70;14.05;;;1.00;99.90;;;;;;5078106;28;20432;-66
2020/12/08 06:43:30;;;;;;;26.13;15.73;;;1.00;99.90;;;;;;5083693;28;20119;-67
2020/12/08 06:46:07;;;;;;;27.77;14.77;;;1.00;99.90;;;;;;5082404;28;20021;-67
2020/12/08 06:48:35;;;;;;;34.40;15.73;;;1.00;99.90;;;;;;5073040;28;20028;-67
2020/12/08 06:51:00;;;;;;;24.33;14.05;;;1.00;99.90;;;;;;5074793;28;20097;-67
2020/12/08 06:53:26;;;;;;;23.52;14.43;;;1.00;99.90;;;;;;5082331;28;20028;-68
2020/12/08 06:55:52;;;;;;;24.77;13.68;;;1.10;99.90;;;;;;5074235;28;20481;-67
2020/12/08 06:58:18;;;;;;;26.60;15.05;;;1.10;99.90;;;;;;5082825;28;20040;-68
2020/12/08 07:00:47;;;;;;;26.23;16.15;;;1.10;99.90;;;;;;5069779;28;20028;-67
2020/12/08 07:03:16;;;;;;;26.83;15.13;;;1.10;99.90;;;;;;5081577;28;20081;-67
2020/12/08 07:05:43;;;;;;;24.15;15.23;;;1.10;99.90;;;;;;5079658;28;20065;-67
2020/12/08 07:08:13;;;;;;;25.00;15.15;;;1.20;99.90;;;;;;5089421;28;20386;-67
2020/12/08 07:10:41;;;;;;;27.98;15.38;;;1.20;99.90;;;;;;5078123;28;20029;-67
2020/12/08 07:13:14;;;;;;;26.05;15.02;;;1.30;99.90;;;;;;5080809;28;20421;-67
2020/12/08 07:15:40;;;;;;;33.13;16.75;;;1.30;99.90;;;;;;5073074;28;20032;-67
2020/12/08 07:18:08;;;;;;;40.08;17.23;;;1.40;99.90;;;;;;5073470;28;20127;-68
2020/12/08 07:20:34;;;;;;;37.55;16.23;;;1.50;99.90;;;;;;5075787;28;20053;-67
2020/12/08 07:23:04;;;;;;;30.20;16.25;;;1.50;99.90;;;;;;5087475;28;20386;-69
2020/12/08 07:25:30;;;;;;;26.92;15.13;;;1.50;99.90;;;;;;5080626;28;20116;-68
2020/12/08 07:27:57;;;;;;;28.65;15.57;;;1.50;99.90;;;;;;5073806;28;20161;-67
2020/12/08 07:30:27;;;;;;;28.20;15.73;;;1.60;99.90;;;;;;5082090;28;20488;-67
2020/12/08 07:32:53;;;;;;;26.73;14.77;;;1.60;99.90;;;;;;5076780;28;20101;-67
2020/12/08 07:35:25;;;;;;;32.30;16.70;;;1.60;99.90;;;;;;5076845;28;20566;-67
2020/12/08 07:37:58;;;;;;;23.58;15.40;;;1.60;99.90;;;;;;5078683;28;20036;-68
2020/12/08 07:40:36;;;;;;;29.40;16.60;;;1.60;99.90;;;;;;5072434;28;20055;-68
2020/12/08 07:43:03;;;;;;;28.10;14.88;;;1.60;99.90;;;;;;5081144;28;20038;-68
2020/12/08 07:45:30;;;;;;;24.60;14.75;;;1.50;99.90;;;;;;5073933;28;20032;-67
2020/12/08 07:48:01;;;;;;;28.10;15.35;;;1.50;99.90;;;;;;5082128;28;20020;-67
2020/12/08 07:50:32;;;;;;;28.10;15.38;;;1.50;99.90;;;;;;5073820;28;20532;-67
2020/12/08 07:52:58;;;;;;;;;;;1.50;99.90;;;;;;5080100;28;20499;-67
2020/12/08 07:55:25;;;;;;;27.35;15.13;;;1.50;99.90;;;;;;5077465;28;20372;-68
2020/12/08 07:57:50;;;;;;;26.48;14.52;;;1.60;99.90;;;;;;5087491;28;20636;-67
2020/12/08 08:00:16;;;;;;;27.85;16.05;;;1.60;99.90;;;;;;5070926;28;20107;-68
2020/12/08 08:02:41;;;;;;;29.63;15.23;;;1.60;99.90;;;;;;5073767;28;20036;-67
2020/12/08 08:05:07;;;;;;;25.95;14.80;;;1.70;99.90;;;;;;5078924;28;20024;-68
2020/12/08 08:07:32;;;;;;;27.08;15.75;;;1.80;99.90;;;;;;5073246;28;20496;-67
2020/12/08 08:09:58;;;;;;;30.85;15.63;;;1.80;99.90;;;;;;5067988;28;20465;-68
2020/12/08 08:12:25;;;;;;;28.88;15.50;;;1.90;99.90;;;;;;5058934;28;20492;-68
2020/12/08 08:14:51;;;;;;;22.80;14.73;;;1.90;99.90;;;;;;5065010;28;20052;-68
2020/12/08 08:17:17;;;;;;;25.77;14.35;;;1.90;99.90;;;;;;5060106;28;20109;-68
2020/12/08 08:19:42;;;;;;;29.38;16.00;;;2.10;99.90;;;;;;5070445;28;20052;-67
2020/12/08 08:22:08;;;;;;;33.58;16.60;;;2.10;99.90;;;;;;5057189;28;20033;-67
2020/12/08 08:24:33;;;;;;;26.42;15.50;;;2.20;99.90;;;;;;5059005;28;20025;-68
2020/12/08 08:26:59;;;;;;;30.98;17.23;;;2.20;99.90;;;;;;5062818;28;20033;-68
2020/12/08 08:29:24;;;;;;;30.27;15.88;;;2.20;99.90;;;;;;5057564;28;20016;-67
2020/12/08 08:31:50;;;;;;;25.77;15.80;;;2.30;99.90;;;;;;5060470;28;20033;-68
2020/12/08 08:34:16;;;;;;;27.50;15.75;;;2.30;99.90;;;;;;5059819;28;20036;-68
2020/12/08 08:36:52;;;;;;;32.15;15.93;;;2.40;99.90;;;;;;5053855;28;20118;-68
2020/12/08 08:39:18;;;;;;;24.55;15.60;;;2.40;99.90;;;;;;5075203;28;20029;-68
2020/12/08 08:41:44;;;;;;;25.00;15.05;;;2.50;99.90;;;;;;5067852;28;20128;-69
2020/12/08 08:44:10;;;;;;;34.42;16.23;;;2.50;99.90;;;;;;5066920;28;20074;-68
2020/12/08 08:46:40;;;;;;;27.98;15.95;;;2.50;99.90;;;;;;5065852;28;20029;-68
2020/12/08 08:49:07;;;;;;;30.08;14.98;;;2.50;99.90;;;;;;5069170;28;20123;-68
2020/12/08 08:51:36;;;;;;;30.52;16.35;;;2.60;99.90;;;;;;5061419;28;20128;-68
2020/12/08 08:54:01;;;;;;;28.13;15.57;;;2.60;99.90;;;;;;5069352;28;20055;-68
2020/12/08 08:56:27;;;;;;;29.98;15.63;;;2.60;99.90;;;;;;5080851;28;20090;-67
2020/12/08 08:58:53;;;;;;;24.88;14.88;;;2.60;99.90;;;;;;5074452;28;20020;-68
2020/12/08 09:01:18;;;;;;;30.30;15.52;;;2.70;99.90;;;;;;5064783;28;20024;-68
2020/12/08 09:03:45;;;;;;;28.17;16.33;;;2.60;99.90;;;;;;5062975;28;20013;-68
2020/12/08 09:06:12;;;;;;;26.05;16.50;;;2.70;99.90;;;;;;5070705;28;20542;-68
2020/12/08 09:08:38;;;;;;;27.45;16.63;;;2.70;99.90;;;;;;5059865;28;20599;-66
2020/12/08 09:11:03;;;;;;;32.13;17.73;;;2.80;99.90;;;;;;5067719;28;20112;-68
2020/12/08 09:13:29;;;;;;;29.08;16.77;;;2.80;99.90;;;;;;5061487;28;20108;-68
2020/12/08 09:15:54;;;;;;;27.55;16.58;;;2.80;99.90;;;;;;5057545;28;20358;-69
2020/12/08 09:18:20;;;;;;;26.08;16.00;;;2.90;99.90;;;;;;5064409;28;20032;-70
2020/12/08 09:20:45;;;;;;;27.77;16.23;;;2.90;99.90;;;;;;5062840;28;20045;-69
2020/12/08 09:23:11;;;;;;;25.48;14.43;;;2.90;99.90;;;;;;5066450;28;20085;-68
2020/12/08 09:25:37;;;;;;;23.90;15.35;;;3.00;99.90;;;;;;5062877;28;20032;-68
2020/12/08 09:28:02;;;;;;;30.02;16.35;;;3.00;99.90;;;;;;5065964;28;20029;-69
2020/12/08 09:30:28;;;;;;;23.92;15.93;;;3.10;99.90;;;;;;5066018;28;20112;-69
2020/12/08 09:32:53;;;;;;;28.13;16.02;;;3.10;99.90;;;;;;5073650;28;20035;-69
2020/12/08 09:35:19;;;;;;;30.17;16.75;;;3.30;99.90;;;;;;5078604;28;20037;-68
2020/12/08 09:37:45;;;;;;;28.30;17.13;;;3.30;99.90;;;;;;5078644;28;20047;-68
2020/12/08 09:40:11;;;;;;;31.40;17.48;;;3.40;99.90;;;;;;5065521;28;20076;-68
2020/12/08 09:42:41;;;;;;;28.35;17.05;;;3.50;99.90;;;;;;5058224;28;20024;-68
2020/12/08 09:45:08;;;;;;;28.13;16.98;;;3.50;99.90;;;;;;5060215;28;20025;-68
2020/12/08 09:47:35;;;;;;;33.38;17.35;;;3.60;99.90;;;;;;5056975;28;20067;-68
2020/12/08 09:50:03;;;;;;;33.38;19.50;;;3.70;99.90;;;;;;5067085;28;20091;-67
2020/12/08 09:52:29;;;;;;;31.75;18.42;;;3.70;99.90;;;;;;5061859;28;20063;-67
2020/12/08 09:54:55;;;;;;;30.25;18.00;;;3.80;99.90;;;;;;5060750;28;20106;-68
2020/12/08 09:57:21;;;;;;;27.98;17.85;;;3.80;99.90;;;;;;5058026;28;20025;-67
2020/12/08 09:59:46;;;;;;;30.25;18.33;;;3.80;99.90;;;;;;5062072;28;20112;-68
2020/12/08 10:02:12;;;;;;;27.70;17.83;;;3.90;99.90;;;;;;5059844;28;20036;-67
2020/12/08 10:04:37;;;;;;;33.83;18.60;;;3.90;99.90;;;;;;5064862;28;20790;-67
2020/12/08 10:07:03;;;;;;;32.30;18.67;;;3.90;99.90;;;;;;5080235;28;20024;-67
2020/12/08 10:09:28;;;;;;;27.85;17.83;;;3.90;99.90;;;;;;5074205;28;20059;-68
2020/12/08 10:11:54;;;;;;;29.67;18.13;;;4.00;99.90;;;;;;5077880;28;20040;-68
2020/12/08 10:14:20;;;;;;;32.47;17.85;;;4.00;99.90;;;;;;5077020;28;20035;-71
2020/12/08 10:16:46;;;;;;;34.08;18.65;;;4.10;99.90;;;;;;5052315;28;20029;-68
2020/12/08 10:19:11;;;;;;;33.35;19.25;;;4.20;99.90;;;;;;5060023;28;20036;-68
2020/12/08 10:21:39;;;;;;;28.38;17.95;;;4.30;99.90;;;;;;5072691;28;20036;-68
2020/12/08 10:24:05;;;;;;;32.97;18.67;;;4.30;99.90;;;;;;5077368;28;20058;-67
2020/12/08 10:26:30;;;;;;;28.00;18.20;;;4.30;99.90;;;;;;5067892;28;20602;-68
2020/12/08 10:28:56;;;;;;;30.75;18.95;;;4.40;99.90;;;;;;5067696;28;20033;-68
2020/12/08 10:31:22;;;;;;;28.77;19.05;;;4.40;99.90;;;;;;5069736;28;20025;-68
2020/12/08 10:33:47;;;;;;;32.80;18.02;;;4.50;99.90;;;;;;5078137;28;20040;-69
2020/12/08 10:36:13;;;;;;;29.80;18.02;;;4.50;99.90;;;;;;5067111;28;20021;-67
2020/12/08 10:38:39;;;;;;;31.98;17.85;;;4.60;99.90;;;;;;5061141;28;20036;-67
2020/12/08 10:41:05;;;;;;;29.02;17.70;;;4.70;99.90;;;;;;5058233;28;20028;-67
2020/12/08 10:43:31;;;;;;;30.95;18.27;;;4.70;99.90;;;;;;5090171;28;20105;-68
2020/12/08 10:45:57;;;;;;;34.40;18.30;;;4.80;99.90;;;;;;5064694;28;20115;-67
2020/12/08 10:48:27;;;;;;;32.00;16.48;;;4.80;99.90;;;;;;5066359;28;20081;-67
2020/12/08 10:50:52;;;;;;;27.90;16.85;;;4.80;99.90;;;;;;5068615;28;20056;-67
2020/12/08 10:53:18;;;;;;;25.67;17.40;;;4.80;99.90;;;;;;5081346;28;20101;-68
2020/12/08 10:55:44;;;;;;;29.73;17.58;;;4.90;99.90;;;;;;5091729;28;20024;-67
2020/12/08 10:58:09;;;;;;;29.48;17.42;;;4.90;99.90;;;;;;5079539;28;20032;-69
2020/12/08 11:00:35;;;;;;;29.05;17.38;;;4.90;99.90;;;;;;5090068;28;20051;-68
2020/12/08 11:03:01;;;;;;;31.75;18.23;;;4.90;99.90;;;;;;5071173;28;20473;-67
2020/12/08 11:05:26;;;;;;;28.90;17.25;;;4.90;99.90;;;;;;5075175;28;20100;-68
2020/12/08 11:07:52;;;;;;;26.02;17.10;;;4.90;99.90;;;;;;5076732;28;20099;-67
2020/12/08 11:10:18;;;;;;;35.10;18.63;;;4.90;99.90;;;;;;5087670;28;20032;-69
2020/12/08 11:12:43;;;;;;;31.27;18.92;;;4.80;99.90;;;;;;5083229;28;20108;-68
2020/12/08 11:15:10;;;;;;;33.08;17.92;;;4.90;99.90;;;;;;5075177;28;20052;-67
2020/12/08 11:17:36;;;;;;;30.58;17.42;;;4.90;99.90;;;;;;5085599;28;20064;-67
2020/12/08 11:20:05;;;;;;;30.75;18.00;;;4.90;99.90;;;;;;5087943;28;20036;-68
2020/12/08 11:22:32;;;;;;;27.77;17.92;;;4.90;99.90;;;;;;5089701;28;20032;-68
2020/12/08 11:24:58;;;;;;;33.22;19.02;;;4.90;99.90;;;;;;5089546;28;20032;-68
2020/12/08 11:27:24;;;;;;;30.33;18.15;;;4.90;99.90;;;;;;5082552;28;20095;-67
2020/12/08 11:29:50;;;;;;;29.67;17.13;;;4.90;99.90;;;;;;5088379;28;20099;-69
2020/12/08 11:32:16;;;;;;;27.00;18.08;;;5.00;99.90;;;;;;5086193;28;20016;-67
2020/12/08 11:34:43;;;;;;;26.77;17.08;;;5.00;99.90;;;;;;5088831;28;20016;-67
2020/12/08 11:37:09;;;;;;;30.17;17.48;;;5.10;99.90;;;;;;5074596;28;20051;-67
2020/12/08 11:39:35;;;;;;;29.83;18.15;;;5.10;99.90;;;;;;5057199;28;20025;-67
2020/12/08 11:42:02;;;;;;;25.65;16.48;;;5.10;99.90;;;;;;5057371;28;20513;-67
2020/12/08 11:44:28;;;;;;;34.20;18.67;;;5.10;99.90;;;;;;5058381;28;20056;-67
2020/12/08 11:46:53;;;;;;;28.08;17.77;;;5.10;99.90;;;;;;5067837;28;20067;-68
2020/12/08 11:49:19;;;;;;;28.60;17.48;;;5.20;99.90;;;;;;5065879;28;20025;-68
2020/12/08 11:51:46;;;;;;;30.35;16.98;;;5.10;99.90;;;;;;5069896;28;20032;-68
2020/12/08 11:54:12;;;;;;;27.58;17.45;;;5.20;99.90;;;;;;5062309;28;20032;-68
2020/12/08 11:56:38;;;;;;;30.17;18.60;;;5.20;99.90;;;;;;5059175;28;20033;-68
2020/12/08 11:59:04;;;;;;;25.10;18.08;;;5.20;99.90;;;;;;5062209;28;20024;-68
2020/12/08 12:01:30;;;;;;;24.73;16.52;;;5.30;99.90;;;;;;5060047;28;20021;-68
2020/12/08 12:03:56;;;;;;;27.50;17.25;;;5.30;99.90;;;;;;5074479;28;20088;-68
2020/12/08 12:06:21;;;;;;;24.38;16.85;;;5.30;99.90;;;;;;5066621;28;20032;-68
2020/12/08 12:08:47;;;;;;;30.55;18.55;;;5.40;99.90;;;;;;5063365;28;20024;-68
2020/12/08 12:11:12;;;;;;;27.38;17.10;;;5.40;99.90;;;;;;5059991;28;20021;-68
2020/12/08 12:13:38;;;;;;;23.48;17.00;;;5.50;99.90;;;;;;5068174;28;20037;-68
2020/12/08 12:16:03;;;;;;;26.58;17.70;;;5.50;99.90;;;;;;5061886;28;20033;-67
2020/12/08 12:18:29;;;;;;;28.90;17.60;;;5.60;99.90;;;;;;5065728;28;20036;-67
2020/12/08 12:20:55;;;;;;;25.20;17.02;;;5.50;99.90;;;;;;5056104;28;20037;-68
2020/12/08 12:23:20;;;;;;;23.20;16.95;;;5.50;99.90;;;;;;5073265;28;20044;-67
2020/12/08 12:25:46;;;;;;;26.58;17.80;;;5.60;99.90;;;;;;5065913;28;20036;-67
2020/12/08 12:28:11;;;;;;;26.52;16.98;;;5.60;99.90;;;;;;5063520;28;20059;-67
2020/12/08 12:30:37;;;;;;;30.58;18.33;;;5.60;99.90;;;;;;5080726;28;20483;-67
2020/12/08 12:33:03;;;;;;;29.90;18.00;;;5.60;99.90;;;;;;5067175;28;20025;-68
2020/12/08 12:35:29;;;;;;;26.23;16.95;;;5.60;99.90;;;;;;5060938;28;20459;-66